Time;durP1;ratioP1;P1;durP2;ratioP2;P2;SDS_P1;SDS_P2;PMS_P1;PMS_P2;Temp;Humidity;BMP_temperature;BMP_pressure;BME280_temperature;BME280_humidity;BME280_pressure;Samples;Min_cycle;Max_cycle;Signal;HPM_P1;HPM_P2
2021/12/19 00:09:17;;;;;;;4.27;2.83;;;19.30;73.10;;;;;;5098306;28;20201;-22
2021/12/19 00:11:43;;;;;;;3.90;2.70;;;19.30;73.30;;;;;;5099649;28;20201;-20
2021/12/19 00:14:09;;;;;;;4.10;3.07;;;19.30;73.50;;;;;;5082188;28;20183;-21
2021/12/19 00:16:35;;;;;;;3.37;2.70;;;19.20;73.70;;;;;;5100080;28;20840;-21
2021/12/19 00:19:01;;;;;;;3.93;2.77;;;19.20;73.90;;;;;;5100023;28;20273;-18
2021/12/19 00:21:28;;;;;;;3.60;2.87;;;19.20;74.20;;;;;;5082358;28;20230;-20
2021/12/19 00:23:55;;;;;;;3.77;2.93;;;19.20;74.90;;;;;;5099319;28;20212;-21
2021/12/19 00:26:20;;;;;;;3.40;2.70;;;19.20;74.40;;;;;;5099150;28;20212;-20
2021/12/19 00:28:48;;;;;;;4.40;2.97;;;19.10;75.30;;;;;;5099834;28;20192;-21
2021/12/19 00:31:15;;;;;;;3.43;2.83;;;19.10;74.70;;;;;;5082146;28;20185;-19
2021/12/19 00:33:42;;;;;;;4.20;3.07;;;19.10;75.00;;;;;;5099311;28;20213;-19
2021/12/19 00:36:08;;;;;;;3.87;3.00;;;19.10;75.20;;;;;;5099689;28;20195;-20
2021/12/19 00:38:35;;;;;;;4.10;2.70;;;19.00;75.20;;;;;;5082020;28;20250;-20
2021/12/19 00:41:03;;;;;;;3.07;2.70;;;19.00;75.60;;;;;;5081826;28;20198;-21
2021/12/19 00:46:43;;;;;;;3.10;2.80;;;18.90;75.70;;;;;;5051299;28;20228;-17
2021/12/19 00:49:09;;;;;;;3.20;2.83;;;18.90;76.00;;;;;;5040943;28;20279;-19
2021/12/19 00:51:35;;;;;;;3.20;2.90;;;18.90;76.10;;;;;;5091399;28;20212;-19
2021/12/19 00:54:01;;;;;;;3.93;3.10;;;18.90;76.10;;;;;;5102174;28;20247;-17
2021/12/19 00:56:27;;;;;;;4.00;2.90;;;18.80;76.20;;;;;;5119751;28;20246;-20
2021/12/19 00:58:53;;;;;;;4.30;3.10;;;18.80;76.40;;;;;;5119270;28;20193;-19
2021/12/19 01:01:19;;;;;;;3.73;2.90;;;18.80;76.40;;;;;;5101663;28;20204;-20
2021/12/19 01:03:47;;;;;;;3.43;2.90;;;18.80;76.70;;;;;;5120140;28;20203;-21
2021/12/19 01:06:17;;;;;;;3.07;2.70;;;18.80;76.80;;;;;;5119676;28;20611;-20
2021/12/19 01:08:43;;;;;;;3.30;2.80;;;18.70;77.00;;;;;;5101629;28;20262;-19
2021/12/19 01:11:10;;;;;;;4.07;2.77;;;18.70;77.00;;;;;;5119102;28;20201;-20
2021/12/19 01:13:35;;;;;;;4.63;3.17;;;18.70;77.10;;;;;;5101246;28;20297;-20
2021/12/19 01:16:02;;;;;;;3.17;2.87;;;18.70;77.30;;;;;;5101770;28;20535;-20
2021/12/19 01:18:28;;;;;;;3.80;3.07;;;18.70;77.40;;;;;;5101535;28;20215;-19
2021/12/19 01:20:55;;;;;;;3.40;2.90;;;18.70;77.40;;;;;;5100677;28;20257;-18
2021/12/19 01:23:22;;;;;;;3.95;2.95;;;18.60;77.40;;;;;;5118612;28;20207;-21
2021/12/19 01:25:52;;;;;;;2.97;2.63;;;18.60;77.60;;;;;;5118978;28;20187;-20
2021/12/19 01:28:18;;;;;;;3.03;2.73;;;18.60;77.80;;;;;;5101498;28;20250;-18
2021/12/19 01:30:44;;;;;;;4.10;3.00;;;18.60;77.80;;;;;;5100941;28;20579;-19
2021/12/19 01:33:11;;;;;;;3.40;2.90;;;18.60;77.70;;;;;;5101631;28;20200;-19
2021/12/19 01:35:37;;;;;;;3.23;2.70;;;18.60;78.00;;;;;;5118821;28;20183;-20
2021/12/19 01:38:02;;;;;;;3.40;2.90;;;18.60;78.10;;;;;;5118883;28;20338;-18
2021/12/19 01:40:28;;;;;;;4.30;3.00;;;18.50;77.90;;;;;;5101776;28;20291;-20
2021/12/19 01:42:56;;;;;;;3.73;3.17;;;18.60;78.20;;;;;;5101125;28;20185;-21
2021/12/19 01:45:34;;;;;;;3.53;2.97;;;18.50;78.20;;;;;;5118775;28;20224;-20
2021/12/19 01:48:03;;;;;;;4.10;2.97;;;18.50;78.40;;;;;;5119172;28;20288;-18
2021/12/19 01:50:31;;;;;;;4.00;2.90;;;18.50;78.50;;;;;;5119008;28;20173;-23
2021/12/19 01:52:58;;;;;;;3.37;3.00;;;18.50;78.50;;;;;;5100988;28;20194;-20
2021/12/19 01:55:24;;;;;;;3.10;2.73;;;18.50;78.50;;;;;;5118918;28;20195;-18
2021/12/19 01:57:51;;;;;;;3.20;2.90;;;18.50;78.60;;;;;;5101320;28;20195;-19
2021/12/19 02:00:27;;;;;;;2.80;2.60;;;18.40;78.70;;;;;;5118716;28;20195;-21
2021/12/19 02:02:54;;;;;;;4.17;3.10;;;18.40;78.80;;;;;;5118812;28;20192;-21
2021/12/19 02:05:20;;;;;;;5.23;3.10;;;18.40;78.80;;;;;;5118263;28;20214;-20
2021/12/19 02:07:48;;;;;;;3.20;2.90;;;18.40;78.90;;;;;;5100847;28;20565;-24
2021/12/19 02:10:22;;;;;;;4.33;3.17;;;18.40;79.10;;;;;;5100816;28;20169;-21
2021/12/19 02:12:50;;;;;;;3.83;3.00;;;18.40;79.10;;;;;;5118118;28;20190;-22
2021/12/19 02:15:19;;;;;;;3.83;2.70;;;18.40;79.00;;;;;;5118297;28;20343;-18
2021/12/19 02:17:46;;;;;;;3.33;2.80;;;18.40;79.30;;;;;;5099989;28;20612;-21
2021/12/19 02:20:13;;;;;;;3.00;2.60;;;18.30;79.20;;;;;;5118351;28;20191;-20
2021/12/19 02:22:40;;;;;;;2.70;2.40;;;18.30;79.30;;;;;;5100546;28;20194;-17
2021/12/19 02:25:06;;;;;;;2.83;2.63;;;18.30;79.40;;;;;;5118935;28;20307;-20
2021/12/19 02:27:33;;;;;;;3.10;2.80;;;18.30;79.40;;;;;;5100220;28;20202;-20
2021/12/19 02:30:05;;;;;;;3.93;2.90;;;18.30;79.50;;;;;;5118691;28;20196;-20
2021/12/19 02:32:32;;;;;;;2.90;2.70;;;18.30;79.60;;;;;;5100471;28;20287;-19
2021/12/19 02:35:01;;;;;;;4.40;3.07;;;18.30;79.70;;;;;;5118073;28;20162;-20
2021/12/19 02:48:14;;;;;;;3.00;2.70;;;18.20;79.70;;;;;;5118682;28;20199;-22
2021/12/19 02:50:51;;;;;;;3.07;2.63;;;18.20;79.80;;;;;;5117900;28;20160;-20
2021/12/19 02:53:34;;;;;;;3.17;2.43;;;18.20;80.00;;;;;;5117901;28;20280;-20
2021/12/19 02:56:08;;;;;;;3.77;2.90;;;18.20;79.90;;;;;;5100436;28;20571;-17
2021/12/19 02:58:36;;;;;;;3.33;2.80;;;18.20;80.10;;;;;;5117739;28;20244;-21
2021/12/19 03:01:06;;;;;;;2.87;2.63;;;18.20;80.00;;;;;;5117975;28;20360;-23
2021/12/19 03:03:32;;;;;;;3.03;2.73;;;18.10;80.00;;;;;;5118433;28;20190;-21
2021/12/19 03:05:58;;;;;;;2.83;2.53;;;18.10;80.00;;;;;;5117310;28;20177;-20
2021/12/19 03:08:25;;;;;;;3.97;2.60;;;18.10;80.10;;;;;;5100044;28;20736;-22
2021/12/19 03:11:34;;;;;;;3.77;2.53;;;18.10;80.30;;;;;;5099980;28;20251;-22
2021/12/19 03:19:22;;;;;;;2.70;2.43;;;18.10;80.30;;;;;;5117725;28;20204;-17
2021/12/19 03:21:48;;;;;;;2.87;2.50;;;18.10;80.30;;;;;;5117592;28;20271;-20
2021/12/19 03:24:14;;;;;;;2.70;2.23;;;18.10;80.40;;;;;;5117366;28;20363;-19
2021/12/19 03:26:40;;;;;;;3.30;2.73;;;18.10;80.40;;;;;;5116717;28;20206;-21
2021/12/19 03:29:05;;;;;;;3.40;2.80;;;18.10;80.40;;;;;;5100063;28;20208;-22
2021/12/19 03:31:34;;;;;;;2.90;2.60;;;18.10;80.50;;;;;;5117141;28;20215;-18
2021/12/19 03:33:59;;;;;;;4.17;2.67;;;18.00;80.50;;;;;;5099578;28;20193;-18
2021/12/19 03:36:27;;;;;;;3.10;2.57;;;18.00;80.60;;;;;;5098738;28;20207;-19
2021/12/19 03:38:58;;;;;;;3.83;2.60;;;18.00;80.70;;;;;;5100001;28;20240;-20
2021/12/19 03:41:33;;;;;;;2.80;2.43;;;18.00;80.60;;;;;;5117297;28;20197;-20
2021/12/19 03:43:58;;;;;;;4.37;2.67;;;18.00;80.60;;;;;;5118607;28;20229;-20
2021/12/19 03:46:24;;;;;;;4.57;2.77;;;18.00;80.80;;;;;;5120501;28;20207;-20
2021/12/19 03:48:49;;;;;;;2.43;2.23;;;18.00;80.80;;;;;;5103082;28;20214;-19
2021/12/19 03:51:15;;;;;;;3.13;2.70;;;18.00;80.80;;;;;;5121155;28;20200;-20
2021/12/19 03:53:43;;;;;;;2.77;2.57;;;18.00;80.80;;;;;;5103005;28;20169;-21
2021/12/19 03:56:09;;;;;;;2.60;2.40;;;17.90;80.80;;;;;;5120608;28;20192;-17
2021/12/19 03:58:35;;;;;;;3.13;2.60;;;17.90;80.90;;;;;;5120620;28;20194;-20
2021/12/19 04:01:05;;;;;;;2.50;2.27;;;17.90;81.00;;;;;;5102375;28;20198;-20
2021/12/19 04:03:31;;;;;;;2.77;2.37;;;17.90;81.00;;;;;;5102581;28;20197;-19
2021/12/19 04:05:56;;;;;;;3.00;2.27;;;17.90;81.00;;;;;;5120434;28;20312;-21
2021/12/19 04:08:23;;;;;;;2.50;2.30;;;17.90;81.10;;;;;;5120905;28;20184;-21
2021/12/19 04:10:51;;;;;;;2.80;2.60;;;17.90;81.10;;;;;;5120437;28;20279;-21
2021/12/19 04:13:17;;;;;;;3.10;2.33;;;17.90;81.10;;;;;;5120486;28;20186;-19
2021/12/19 04:15:47;;;;;;;2.93;2.70;;;17.90;81.20;;;;;;5120324;28;20592;-20
2021/12/19 04:18:13;;;;;;;3.13;2.47;;;17.90;81.20;;;;;;5086137;28;20223;-21
2021/12/19 04:20:40;;;;;;;2.40;2.20;;;17.80;81.20;;;;;;5120275;28;20227;-19
2021/12/19 04:23:11;;;;;;;2.67;2.43;;;17.90;81.30;;;;;;5120405;28;20172;-20
2021/12/19 04:25:37;;;;;;;2.40;2.17;;;17.80;81.30;;;;;;5120289;28;20211;-20
2021/12/19 04:28:03;;;;;;;2.57;2.37;;;17.80;81.40;;;;;;5102638;28;20245;-18
2021/12/19 04:30:31;;;;;;;3.20;2.70;;;17.80;81.40;;;;;;5102647;28;20297;-18
2021/12/19 04:33:01;;;;;;;2.77;2.30;;;17.80;81.50;;;;;;5102528;28;20190;-20
2021/12/19 04:35:32;;;;;;;2.77;2.40;;;17.80;81.50;;;;;;5102804;28;20225;-20
2021/12/19 04:57:29;;;;;;;2.80;2.30;;;17.70;81.80;;;;;;5074673;28;20573;-19
2021/12/19 05:16:16;;;;;;;2.50;2.30;;;17.60;82.10;;;;;;5119465;28;20200;-21
2021/12/19 05:18:44;;;;;;;2.30;2.10;;;17.60;82.10;;;;;;5119244;28;20590;-19
2021/12/19 05:21:16;;;;;;;2.73;2.37;;;17.60;82.10;;;;;;5119756;28;20221;-21
2021/12/19 05:26:12;;;;;;;2.37;1.90;;;17.60;82.40;;;;;;5119435;28;20362;-22
2021/12/19 05:28:38;;;;;;;2.60;2.40;;;17.50;83.10;;;;;;5101417;28;20196;-23
2021/12/19 05:31:05;;;;;;;2.20;2.00;;;17.50;82.60;;;;;;5119860;28;20197;-18
2021/12/19 05:33:31;;;;;;;2.70;2.13;;;18.50;78.40;;;;;;5119113;28;20208;-23
2021/12/19 05:44:08;;;;;;;1.93;1.77;;;21.70;58.30;;;;;;5119447;28;20201;-19
2021/12/19 05:46:56;;;;;;;2.97;1.80;;;22.50;53.40;;;;;;5119122;28;20231;-20
2021/12/19 05:49:22;;;;;;;2.73;1.70;;;23.10;52.40;;;;;;5118770;28;20180;-19
2021/12/19 05:51:48;;;;;;;2.13;1.93;;;23.50;51.40;;;;;;5119133;28;20193;-21
2021/12/19 05:54:14;;;;;;;2.63;2.03;;;23.90;50.80;;;;;;5119277;28;20203;-21
2021/12/19 05:56:41;;;;;;;2.13;1.77;;;24.00;50.20;;;;;;5118529;28;20277;-20
2021/12/19 05:59:08;;;;;;;2.80;1.90;;;24.20;50.00;;;;;;5118961;28;20177;-22
2021/12/19 06:01:35;;;;;;;2.07;1.90;;;24.10;49.60;;;;;;5101057;28;20198;-21
2021/12/19 06:04:01;;;;;;;2.10;1.90;;;24.30;49.60;;;;;;5118604;28;20241;-23
2021/12/19 06:06:33;;;;;;;2.10;1.90;;;24.70;49.20;;;;;;5099698;28;20197;-24
2021/12/19 06:08:58;;;;;;;1.93;1.70;;;24.90;48.60;;;;;;5118741;28;20285;-21
2021/12/19 06:11:24;;;;;;;1.90;1.70;;;25.10;48.40;;;;;;5118934;28;20281;-18
2021/12/19 06:13:50;;;;;;;2.10;1.90;;;25.00;48.30;;;;;;5118677;28;20190;-24
2021/12/19 06:16:16;;;;;;;2.27;1.70;;;24.90;48.30;;;;;;5118809;28;20201;-20
2021/12/19 06:18:42;;;;;;;2.83;1.73;;;24.80;48.40;;;;;;5118737;28;20193;-21
2021/12/19 06:21:09;;;;;;;2.00;1.80;;;24.80;48.50;;;;;;5118734;28;20186;-20
2021/12/19 06:23:34;;;;;;;2.17;1.70;;;24.60;48.60;;;;;;5118681;28;20188;-21
2021/12/19 06:26:00;;;;;;;2.00;1.70;;;24.40;48.80;;;;;;5118481;28;20212;-22
2021/12/19 06:28:26;;;;;;;2.00;1.80;;;24.30;49.10;;;;;;5118229;28;20362;-20
2021/12/19 06:30:52;;;;;;;2.00;1.80;;;24.00;49.30;;;;;;5118710;28;20200;-22
2021/12/19 06:33:18;;;;;;;2.57;1.90;;;23.70;49.80;;;;;;5117295;28;20202;-23
2021/12/19 06:35:44;;;;;;;2.17;1.93;;;23.50;50.30;;;;;;5100221;28;20594;-22
2021/12/19 06:38:12;;;;;;;2.07;1.87;;;23.20;50.70;;;;;;5118332;28;20225;-22
2021/12/19 06:40:38;;;;;;;1.70;1.60;;;22.90;51.30;;;;;;5118531;28;20186;-21
2021/12/19 06:43:04;;;;;;;2.07;1.60;;;22.60;51.90;;;;;;5118393;28;20197;-22
2021/12/19 06:45:30;;;;;;;1.60;1.43;;;22.30;52.60;;;;;;5100118;28;20218;-24
2021/12/19 06:47:55;;;;;;;2.43;1.90;;;22.20;53.30;;;;;;5118045;28;20213;-22
2021/12/19 06:50:22;;;;;;;1.73;1.63;;;21.90;53.80;;;;;;5117618;28;20194;-20
2021/12/19 06:52:48;;;;;;;1.97;1.77;;;21.70;54.50;;;;;;5118687;28;20508;-22
2021/12/19 06:55:15;;;;;;;1.70;1.60;;;21.50;55.20;;;;;;5117493;28;20183;-20
2021/12/19 06:57:41;;;;;;;1.70;1.60;;;21.30;56.00;;;;;;5117072;28;20202;-22
2021/12/19 07:00:19;;;;;;;1.70;1.60;;;21.10;56.70;;;;;;5117477;28;20252;-23
2021/12/19 07:02:45;;;;;;;1.80;1.70;;;21.00;57.40;;;;;;5114212;28;20205;-24
2021/12/19 07:05:11;;;;;;;1.70;1.60;;;20.80;58.20;;;;;;5099662;28;20213;-21
2021/12/19 07:07:37;;;;;;;1.70;1.60;;;20.60;58.90;;;;;;5117818;28;20193;-21
2021/12/19 07:10:05;;;;;;;1.83;1.60;;;20.40;60.30;;;;;;5117424;28;20229;-19
2021/12/19 07:12:32;;;;;;;1.67;1.50;;;20.20;61.00;;;;;;5117433;28;20189;-21
2021/12/19 07:14:58;;;;;;;2.00;1.70;;;20.10;62.20;;;;;;5118022;28;20195;-21
2021/12/19 07:17:25;;;;;;;2.00;1.80;;;19.90;63.50;;;;;;5116831;28;20212;-18
2021/12/19 07:19:52;;;;;;;1.90;1.63;;;19.90;64.10;;;;;;5117273;28;20636;-20
2021/12/19 07:22:19;;;;;;;1.50;1.40;;;20.30;62.40;;;;;;5099721;28;20199;-20
2021/12/19 07:24:45;;;;;;;1.60;1.50;;;20.90;59.20;;;;;;5117636;28;20215;-20
2021/12/19 07:27:12;;;;;;;1.67;1.57;;;21.50;57.00;;;;;;5098861;28;20205;-21
2021/12/19 07:29:39;;;;;;;1.80;1.50;;;22.50;54.40;;;;;;5117054;28;20597;-20
2021/12/19 07:32:05;;;;;;;2.50;1.60;;;23.30;52.40;;;;;;5116757;28;20182;-21
2021/12/19 07:34:33;;;;;;;1.60;1.50;;;23.90;50.90;;;;;;5117177;28;20201;-20
2021/12/19 07:37:01;;;;;;;1.93;1.50;;;24.30;49.90;;;;;;5117168;28;20649;-21
2021/12/19 07:42:03;;;;;;;1.50;1.40;;;24.90;48.60;;;;;;5117358;28;20194;-21
2021/12/19 07:44:29;;;;;;;1.40;1.30;;;25.00;48.30;;;;;;5116149;28;20209;-22
2021/12/19 07:46:55;;;;;;;1.60;1.43;;;24.90;48.10;;;;;;5098949;28;20197;-21
2021/12/19 07:49:21;;;;;;;1.87;1.70;;;24.80;48.20;;;;;;5099791;28;20194;-19
2021/12/19 07:51:46;;;;;;;1.60;1.50;;;24.60;48.30;;;;;;5116928;28;20197;-24
2021/12/19 07:54:12;;;;;;;1.33;1.23;;;24.40;48.50;;;;;;5099363;28;20199;-19
2021/12/19 07:56:39;;;;;;;1.60;1.50;;;24.10;48.90;;;;;;5099841;28;20197;-23
2021/12/19 07:59:06;;;;;;;1.40;1.30;;;23.90;49.20;;;;;;5116478;28;20168;-21
2021/12/19 08:01:32;;;;;;;1.40;1.30;;;23.60;49.60;;;;;;5116406;28;20201;-19
2021/12/19 08:03:57;;;;;;;1.80;1.40;;;23.30;50.10;;;;;;5098992;28;20218;-23
2021/12/19 08:06:23;;;;;;;1.70;1.40;;;23.10;50.60;;;;;;5116935;28;20258;-20
2021/12/19 08:08:51;;;;;;;1.40;1.30;;;22.90;50.90;;;;;;5116690;28;20201;-22
2021/12/19 08:14:01;;;;;;;1.53;1.43;;;22.40;52.00;;;;;;5116633;28;20497;-21
2021/12/19 08:16:27;;;;;;;1.40;1.30;;;22.20;52.70;;;;;;5098773;28;20225;-21
2021/12/19 08:18:53;;;;;;;1.93;1.50;;;21.90;53.10;;;;;;5116039;28;20240;-21
2021/12/19 08:21:20;;;;;;;1.40;1.30;;;21.70;53.80;;;;;;5099170;28;20194;-21
2021/12/19 08:23:47;;;;;;;2.30;1.73;;;21.60;54.30;;;;;;5098928;28;20193;-22
2021/12/19 08:26:14;;;;;;;2.10;1.43;;;21.40;54.90;;;;;;5116061;28;20478;-22
2021/12/19 08:28:40;;;;;;;1.70;1.30;;;21.20;55.60;;;;;;5116531;28;20198;-21
2021/12/19 08:31:06;;;;;;;1.40;1.30;;;21.00;56.20;;;;;;5119429;28;20336;-22
2021/12/19 08:33:32;;;;;;;1.40;1.30;;;20.70;57.00;;;;;;5119251;28;20216;-20
2021/12/19 08:35:59;;;;;;;1.80;1.50;;;20.50;58.10;;;;;;5119469;28;20208;-24
2021/12/19 08:38:26;;;;;;;1.60;1.40;;;20.30;59.10;;;;;;5119215;28;20222;-21
2021/12/19 08:40:52;;;;;;;1.60;1.20;;;20.20;59.90;;;;;;5101951;28;20229;-23
2021/12/19 08:43:19;;;;;;;1.40;1.30;;;20.40;59.30;;;;;;5101676;28;20197;-20
2021/12/19 08:45:44;;;;;;;1.80;1.70;;;20.70;58.50;;;;;;5119351;28;20513;-22
2021/12/19 08:48:12;;;;;;;2.33;1.53;;;21.10;57.10;;;;;;5119452;28;20254;-21
2021/12/19 08:50:37;;;;;;;1.70;1.40;;;21.80;55.50;;;;;;5119655;28;20195;-21
2021/12/19 08:53:03;;;;;;;2.13;1.60;;;22.50;53.60;;;;;;5119523;28;20185;-22
2021/12/19 08:55:30;;;;;;;1.73;1.40;;;23.40;51.80;;;;;;5119259;28;20602;-19
2021/12/19 08:57:55;;;;;;;1.50;1.30;;;24.00;50.40;;;;;;5102238;28;20197;-20
2021/12/19 09:00:22;;;;;;;1.83;1.57;;;24.30;49.60;;;;;;5119084;28;20200;-23
2021/12/19 09:02:51;;;;;;;1.80;1.37;;;24.50;49.20;;;;;;5119211;28;20182;-21
2021/12/19 09:05:18;;;;;;;2.33;1.40;;;24.40;49.10;;;;;;5116873;28;20272;-26
2021/12/19 09:07:44;;;;;;;2.50;1.33;;;24.30;49.30;;;;;;5117794;28;20460;-21
2021/12/19 09:10:11;;;;;;;2.47;1.43;;;24.20;49.20;;;;;;5117442;28;20258;-26
2021/12/19 09:12:37;;;;;;;2.03;1.43;;;24.30;49.20;;;;;;5116762;28;20190;-25
2021/12/19 09:15:04;;;;;;;2.63;1.50;;;24.30;49.30;;;;;;5117856;28;20258;-23
2021/12/19 09:17:30;;;;;;;2.83;1.40;;;24.20;49.40;;;;;;5116918;28;20286;-27
2021/12/19 09:19:56;;;;;;;4.30;1.50;;;24.00;49.60;;;;;;5099875;28;20194;-23
2021/12/19 09:22:21;;;;;;;2.67;1.50;;;23.70;50.00;;;;;;5100911;28;20185;-24
2021/12/19 09:24:47;;;;;;;4.67;1.50;;;23.60;50.40;;;;;;5119019;28;20217;-21
2021/12/19 09:27:13;;;;;;;5.50;1.80;;;23.40;50.90;;;;;;5100875;28;20200;-19
2021/12/19 09:29:39;;;;;;;6.80;1.60;;;23.10;51.40;;;;;;5118808;28;20190;-20
2021/12/19 09:32:05;;;;;;;4.50;1.50;;;22.90;52.00;;;;;;5100681;28;20251;-19
2021/12/19 09:34:39;;;;;;;4.13;1.80;;;22.80;52.50;;;;;;5100778;28;20247;-21
2021/12/19 09:37:04;;;;;;;4.50;1.67;;;22.60;53.10;;;;;;5118658;28;20256;-21
2021/12/19 09:39:32;;;;;;;4.80;1.70;;;22.40;53.80;;;;;;5118321;28;20197;-22
2021/12/19 09:42:01;;;;;;;6.30;2.00;;;22.10;54.50;;;;;;5117930;28;20189;-19
2021/12/19 09:44:30;;;;;;;7.77;1.97;;;21.90;55.30;;;;;;5117894;28;20209;-19
2021/12/19 09:46:55;;;;;;;5.60;2.17;;;21.60;56.30;;;;;;5099733;28;20198;-19
2021/12/19 09:49:21;;;;;;;5.43;1.80;;;21.30;57.30;;;;;;5100643;28;20184;-21
2021/12/19 09:51:50;;;;;;;3.33;1.80;;;21.00;58.50;;;;;;5118771;28;20232;-21
2021/12/19 09:54:16;;;;;;;3.13;1.70;;;20.90;59.40;;;;;;5118406;28;20217;-17
2021/12/19 09:56:42;;;;;;;5.70;1.90;;;20.90;60.20;;;;;;5118563;28;20187;-18
2021/12/19 09:59:19;;;;;;;3.00;1.67;;;20.70;61.10;;;;;;5118361;28;20195;-21
2021/12/19 10:01:48;;;;;;;5.90;1.90;;;20.50;62.80;;;;;;5100515;28;20271;-20
2021/12/19 10:04:35;;;;;;;6.00;2.03;;;20.30;64.20;;;;;;5117520;28;20217;-20
2021/12/19 10:07:14;;;;;;;5.67;1.80;;;20.20;66.10;;;;;;5100602;28;20198;-19
2021/12/19 10:10:11;;;;;;;4.00;2.20;;;20.30;65.50;;;;;;5100456;28;20233;-21
2021/12/19 10:12:51;;;;;;;4.90;1.90;;;20.70;62.60;;;;;;5100092;28;20234;-19
2021/12/19 10:15:26;;;;;;;3.83;1.77;;;21.20;59.60;;;;;;5117299;28;20226;-19
2021/12/19 10:18:07;;;;;;;3.40;1.80;;;21.90;57.40;;;;;;5117740;28;20199;-21
2021/12/19 10:20:42;;;;;;;4.80;1.97;;;22.50;55.50;;;;;;5118035;28;20582;-19
2021/12/19 10:23:21;;;;;;;5.90;2.03;;;23.10;53.80;;;;;;5117626;28;20610;-17
2021/12/19 10:26:07;;;;;;;3.77;1.90;;;23.70;52.40;;;;;;5117140;28;20220;-19
2021/12/19 10:28:51;;;;;;;5.60;1.77;;;23.70;51.70;;;;;;5099926;28;20213;-21
2021/12/19 10:31:17;;;;;;;3.43;2.20;;;23.60;51.70;;;;;;5100057;28;20212;-19
2021/12/19 10:33:43;;;;;;;5.30;2.00;;;23.40;51.80;;;;;;5117237;28;20190;-20
2021/12/19 10:36:12;;;;;;;5.67;1.97;;;23.10;52.30;;;;;;5098874;28;20228;-22
2021/12/19 10:38:43;;;;;;;7.23;2.40;;;22.80;53.20;;;;;;5117686;28;20273;-23
2021/12/19 10:41:30;;;;;;;12.50;2.93;;;22.50;54.80;;;;;;5116432;28;20194;-20
2021/12/19 10:44:01;;;;;;;10.67;2.53;;;22.20;56.20;;;;;;5099177;28;20221;-20
2021/12/19 10:46:32;;;;;;;7.80;2.50;;;21.90;57.10;;;;;;5117100;28;20200;-20
2021/12/19 10:48:59;;;;;;;15.93;3.03;;;21.60;59.20;;;;;;5117005;28;20231;-18
2021/12/19 10:51:25;;;;;;;9.67;3.30;;;21.40;59.80;;;;;;5117167;28;20189;-17
2021/12/19 10:53:57;;;;;;;12.87;2.40;;;21.20;61.60;;;;;;5099367;28;20204;-20
2021/12/19 10:56:31;;;;;;;12.33;3.23;;;21.10;62.80;;;;;;5116778;28;20228;-20
2021/12/19 10:58:59;;;;;;;11.57;3.40;;;21.10;63.50;;;;;;5116988;28;20570;-20
2021/12/19 11:01:48;;;;;;;9.33;2.63;;;21.00;63.60;;;;;;5117081;28;20181;-21
2021/12/19 11:04:18;;;;;;;5.80;2.40;;;20.90;64.50;;;;;;5098863;28;20222;-19
2021/12/19 11:06:47;;;;;;;8.40;2.50;;;20.70;65.40;;;;;;5116898;28;20558;-19
2021/12/19 11:09:26;;;;;;;5.77;2.73;;;20.50;66.60;;;;;;5116346;28;20207;-21
2021/12/19 11:12:11;;;;;;;12.60;2.80;;;20.40;67.70;;;;;;5116359;28;20205;-18
2021/12/19 11:14:45;;;;;;;5.90;2.57;;;20.10;68.90;;;;;;5098752;28;20201;-20
2021/12/19 11:17:22;;;;;;;9.33;2.67;;;20.00;69.90;;;;;;5116158;28;20212;-19
2021/12/19 11:19:52;;;;;;;6.77;2.47;;;20.10;69.50;;;;;;5116110;28;20529;-21
2021/12/19 11:22:28;;;;;;;6.07;2.30;;;20.30;67.50;;;;;;5098220;28;20190;-17
2021/12/19 11:24:57;;;;;;;9.60;2.30;;;20.90;63.90;;;;;;5116731;28;20217;-21
2021/12/19 11:27:26;;;;;;;5.93;2.27;;;21.50;59.30;;;;;;5116467;28;20464;-21
2021/12/19 11:29:54;;;;;;;7.03;2.20;;;22.00;57.50;;;;;;5115633;28;20252;-20
2021/12/19 11:32:24;;;;;;;4.33;2.33;;;22.60;55.70;;;;;;5097543;28;20193;-20
2021/12/19 11:35:02;;;;;;;3.47;2.30;;;23.20;53.90;;;;;;5097688;28;20649;-19
2021/12/19 11:37:33;;;;;;;5.23;2.43;;;23.70;52.60;;;;;;5115414;28;20182;-20
2021/12/19 11:40:01;;;;;;;5.93;2.40;;;24.00;51.60;;;;;;5098321;28;20589;-19
2021/12/19 11:42:33;;;;;;;7.07;2.57;;;24.30;51.00;;;;;;5104366;28;20412;-19
2021/12/19 11:47:53;;;;;;;8.53;3.00;;;24.50;50.20;;;;;;5087820;28;20205;-19
2021/12/19 11:50:28;;;;;;;6.57;3.20;;;24.30;50.30;;;;;;5080034;28;20205;-21
2021/12/19 11:53:09;;;;;;;10.37;3.10;;;24.10;50.50;;;;;;5109461;28;20182;-18
2021/12/19 11:55:38;;;;;;;6.93;3.07;;;23.80;50.90;;;;;;5110154;28;20360;-20
2021/12/19 11:58:12;;;;;;;11.23;3.77;;;23.50;51.40;;;;;;5109480;28;20198;-20
2021/12/19 12:00:43;;;;;;;15.43;4.77;;;23.10;52.70;;;;;;5109625;28;20199;-21
2021/12/19 12:03:14;;;;;;;10.97;4.70;;;22.90;53.60;;;;;;5109612;28;20205;-20
2021/12/19 12:05:46;;;;;;;14.23;5.00;;;22.60;54.60;;;;;;5112121;28;20282;-23
2021/12/19 12:08:14;;;;;;;13.20;4.90;;;22.20;55.70;;;;;;5095154;28;20197;-19
2021/12/19 12:10:52;;;;;;;13.13;4.50;;;22.20;56.40;;;;;;5113778;28;20205;-19
2021/12/19 12:13:32;;;;;;;11.40;4.40;;;22.00;56.70;;;;;;5096134;28;20259;-21
2021/12/19 12:16:22;;;;;;;14.57;5.10;;;21.90;57.20;;;;;;5113616;28;20594;-18
2021/12/19 12:18:57;;;;;;;10.80;4.67;;;21.80;57.80;;;;;;5095249;28;20194;-20
2021/12/19 12:21:30;;;;;;;14.10;5.13;;;21.60;58.30;;;;;;5113960;28;20764;-20
2021/12/19 12:24:03;;;;;;;9.33;3.90;;;21.40;59.20;;;;;;5096544;28;20197;-18
2021/12/19 12:26:40;;;;;;;10.17;4.73;;;21.20;60.10;;;;;;5114167;28;20211;-23
2021/12/19 12:29:06;;;;;;;10.37;3.70;;;20.90;61.70;;;;;;5113040;28;20187;-20
2021/12/19 12:31:33;;;;;;;10.83;4.40;;;20.70;63.20;;;;;;5095669;28;20270;-20
2021/12/19 12:33:59;;;;;;;16.07;4.50;;;20.60;64.60;;;;;;5096093;28;20202;-20
2021/12/19 12:36:25;;;;;;;12.03;4.10;;;20.40;65.90;;;;;;5113777;28;20247;-19
2021/12/19 12:38:52;;;;;;;9.30;4.53;;;20.30;67.40;;;;;;5112727;28;20202;-19
2021/12/19 12:42:11;;;;;;;13.77;4.43;;;20.20;68.60;;;;;;5095723;28;20213;-21
2021/12/19 12:44:17;;;;;;;10.53;3.67;;;20.00;69.70;;;;;;5104825;28;20229;-23
2021/12/19 12:46:44;;;;;;;8.03;3.70;;;20.10;69.30;;;;;;5114701;28;20216;-19
2021/12/19 12:49:15;;;;;;;8.57;3.80;;;20.40;67.20;;;;;;5114017;28;20205;-22
2021/12/19 12:51:44;;;;;;;7.03;3.60;;;20.80;64.40;;;;;;5096038;28;20211;-20
2021/12/19 12:54:21;;;;;;;10.40;4.23;;;21.20;61.00;;;;;;5100179;28;20282;-20
2021/12/19 12:56:52;;;;;;;7.97;3.30;;;21.90;57.90;;;;;;5117654;28;20242;-21
2021/12/19 12:59:27;;;;;;;10.93;3.93;;;22.70;55.60;;;;;;5113245;28;20193;-23
2021/12/19 13:02:14;;;;;;;7.17;3.30;;;23.40;53.70;;;;;;5112062;28;20200;-18
2021/12/19 13:04:44;;;;;;;7.27;3.70;;;23.90;52.40;;;;;;5095130;28;20283;-21
2021/12/19 13:07:11;;;;;;;7.20;3.20;;;24.10;51.60;;;;;;5109628;28;20248;-22
2021/12/19 13:09:46;;;;;;;8.70;3.30;;;24.20;51.00;;;;;;5095765;28;20365;-19
2021/12/19 13:12:18;;;;;;;7.70;3.50;;;24.30;50.70;;;;;;5094200;28;20503;-25
2021/12/19 13:15:18;;;;;;;6.60;3.60;;;24.20;50.60;;;;;;5113452;28;20204;-24
2021/12/19 13:17:45;;;;;;;9.47;2.93;;;24.10;50.60;;;;;;5054124;28;20210;-22
2021/12/19 13:20:15;;;;;;;6.80;3.00;;;23.90;50.90;;;;;;5113535;28;20193;-21
2021/12/19 13:22:46;;;;;;;7.80;3.43;;;23.70;51.20;;;;;;5112726;28;20212;-21
2021/12/19 13:25:15;;;;;;;6.27;2.90;;;23.40;51.60;;;;;;5095286;28;20337;-24
2021/12/19 13:27:44;;;;;;;5.00;3.23;;;23.20;52.00;;;;;;5094328;28;20186;-22
2021/12/19 13:30:42;;;;;;;8.37;3.00;;;22.90;52.60;;;;;;5093902;28;20194;-24
2021/12/19 13:33:13;;;;;;;5.57;2.87;;;22.70;53.20;;;;;;5106849;28;20691;-23
2021/12/19 13:35:48;;;;;;;4.73;2.50;;;22.40;53.90;;;;;;5103213;28;20214;-20
2021/12/19 13:38:22;;;;;;;7.07;2.97;;;22.20;54.50;;;;;;5099045;28;20196;-20
2021/12/19 13:40:53;;;;;;;5.70;2.73;;;22.00;55.20;;;;;;5097008;28;20205;-22
2021/12/19 13:43:28;;;;;;;5.97;2.53;;;21.80;55.70;;;;;;5097558;28;20256;-21
2021/12/19 13:45:55;;;;;;;7.10;3.03;;;21.60;56.50;;;;;;5097457;28;20477;-22
2021/12/19 13:48:39;;;;;;;6.37;2.70;;;21.40;57.20;;;;;;5097205;28;20188;-22
2021/12/19 13:51:05;;;;;;;6.17;2.93;;;21.20;58.20;;;;;;5096909;28;20202;-22
2021/12/19 13:53:34;;;;;;;5.27;2.83;;;21.10;58.70;;;;;;5097272;28;20192;-19
2021/12/19 13:56:13;;;;;;;5.27;2.70;;;20.90;59.50;;;;;;5082037;28;20575;-24
2021/12/19 13:58:48;;;;;;;7.10;2.87;;;20.60;61.00;;;;;;5098751;28;20322;-21
2021/12/19 14:01:28;;;;;;;5.60;2.83;;;20.40;62.60;;;;;;5094835;28;20243;-24
2021/12/19 14:04:24;;;;;;;6.27;2.47;;;20.30;64.20;;;;;;5100061;28;20730;-22
2021/12/19 14:06:57;;;;;;;4.20;2.60;;;20.20;65.50;;;;;;5116253;28;20254;-20
2021/12/19 14:09:23;;;;;;;6.37;2.77;;;20.40;63.90;;;;;;5097881;28;20238;-20
2021/12/19 14:11:57;;;;;;;4.20;2.50;;;20.90;61.00;;;;;;5090987;28;20610;-20
2021/12/19 14:17:13;;;;;;;4.13;2.20;;;21.70;57.30;;;;;;5111269;28;20407;-20
2021/12/19 14:19:50;;;;;;;3.80;2.27;;;22.20;56.10;;;;;;5110709;28;20755;-20
2021/12/19 14:22:19;;;;;;;4.17;2.50;;;22.80;54.50;;;;;;5092690;28;20206;-22